Positano Jet — IFTU — position and weather

sailwx.info

Track history (hours):
 
Tides and Currents Weather Stations Pressure Air Temp Water Temp Dewpoint Dewpoint Depression Visibility Wind Speed Wind Dir Waves Ship Positions

Positano Jet

Last reported at 2016-Jul-24 17:33 UTC. Time now 2016-Jul-26 08:28 UTC.
Position N 40°37' E 014°29'.

Length 23 m; draft 2 m.

Type: Ship. MMSI: 247160800.

Date/timePositionNaut miles runAvg speedWind from/ knotsBaromVisibWave heightAir tempDewpointWater temp
2016-Jul-24 17:33N 40°37' E 014°29'8 7.0
2016-Jul-24 16:28N 40°34' E 014°20'2 0.7
2016-Jul-24 13:31N 40°35' E 014°22'5 3.8
2016-Jul-24 12:04N 40°37' E 014°29'2 1.3
2016-Jul-24 10:32N 40°36' E 014°26'10 9.8
2016-Jul-24 09:33N 40°33' E 014°14'12 6.0
2016-Jul-24 07:33N 40°37' E 014°29'7 0.5
2016-Jul-23 17:16N 40°34' E 014°21'2 2.9
2016-Jul-23 16:33N 40°34' E 014°18'10 8.3
2016-Jul-23 15:23N 40°37' E 014°30'6 3.4
2016-Jul-23 13:32N 40°35' E 014°22'4 4.5
2016-Jul-23 12:33N 40°34' E 014°17'1010.1
2016-Jul-23 11:33N 40°38' E 014°29'3 3.2
2016-Jul-23 10:30N 40°36' E 014°25'9 9.2
2016-Jul-23 09:33N 40°33' E 014°14'12 0.7
2016-Jul-22 17:33N 40°37' E 014°29'9 9.3
2016-Jul-22 16:33N 40°34' E 014°17'10 9.5
2016-Jul-22 15:32N 40°37' E 014°29'0 0.0
2016-Jul-22 14:33N 40°37' E 014°29'6 5.9
2016-Jul-22 13:33N 40°35' E 014°22'4 4.3
2016-Jul-22 12:33N 40°34' E 014°17'10 7.8
2016-Jul-22 11:16N 40°38' E 014°29'9 8.2
2016-Jul-22 10:13N 40°34' E 014°19'3 5.2
2016-Jul-22 09:33N 40°33' E 014°14'1110.7
2016-Jul-22 08:32N 40°37' E 014°28'6 0.4
2016-Jul-21 17:20N 40°34' E 014°20'2 2.0
2016-Jul-21 16:33N 40°34' E 014°18'10 9.2
2016-Jul-21 15:31N 40°37' E 014°30'7 3.7
2016-Jul-21 13:29N 40°34' E 014°21'3 3.3
2016-Jul-21 12:33N 40°34' E 014°17'1 0.3
2016-Jul-21 10:13N 40°34' E 014°18'3 4.1
2016-Jul-21 09:33N 40°33' E 014°14'3 0.2
2016-Jul-20 17:13N 40°34' E 014°19'0 0.1
2016-Jul-20 13:25N 40°34' E 014°20'2 2.4
2016-Jul-20 12:33N 40°34' E 014°17'7 3.3
2016-Jul-20 10:33N 40°36' E 014°25'8 7.6
2016-Jul-20 09:27N 40°33' E 014°14'1112.7
2016-Jul-20 08:33N 40°37' E 014°28'7 0.5
2016-Jul-19 17:18N 40°34' E 014°20'1 0.3
2016-Jul-19 13:21N 40°34' E 014°18'0 0.3
2016-Jul-19 12:33N 40°34' E 014°18'1 0.3
2016-Jul-19 10:13N 40°34' E 014°17'2 2.4
2016-Jul-19 09:21N 40°33' E 014°14'2 0.1
2016-Jul-18 17:11N 40°34' E 014°17'2 0.5
2016-Jul-18 13:25N 40°34' E 014°19'2 0.6
2016-Jul-18 10:10N 40°34' E 014°17'2 3.4
2016-Jul-18 09:33N 40°33' E 014°14'3 0.2
2016-Jul-17 17:14N 40°34' E 014°18'0 0.0
2016-Jul-17 13:20N 40°34' E 014°18'1 0.7
2016-Jul-17 12:33N 40°34' E 014°17'0 0.2
2016-Jul-17 10:12N 40°34' E 014°18'3 2.2
2016-Jul-17 09:05N 40°33' E 014°14'3 0.2
2016-Jul-16 17:12N 40°34' E 014°18'2 0.4
2016-Jul-16 13:18N 40°34' E 014°16'0 0.1
2016-Jul-16 10:09N 40°34' E 014°16'1 1.7
2016-Jul-16 09:24N 40°33' E 014°14'1 0.1
2016-Jul-15 17:06N 40°34' E 014°16'2 0.5
2016-Jul-15 13:27N 40°34' E 014°18'2 2.5
2016-Jul-15 12:33N 40°34' E 014°15'11 7.8
2016-Jul-15 11:07N 40°37' E 014°29'1012.1
2016-Jul-15 10:15N 40°34' E 014°16'2 2.3
2016-Jul-15 09:33N 40°33' E 014°14'  
Track history (hours):
 
Tides and Currents Weather Stations Pressure Air Temp Water Temp Dewpoint Dewpoint Depression Visibility Wind Speed Wind Dir Waves Ship Positions

Positano Jet

Last reported at 2016-Jul-24 17:33 UTC. Time now 2016-Jul-26 08:28 UTC.
Position N 40°37' E 014°29'.

Length 23 m; draft 2 m.

Type: Ship. MMSI: 247160800.

Date/timePositionNaut miles runAvg speedWind from/ knotsBaromVisibWave heightAir tempDewpointWater temp
2016-Jul-24 17:33N 40°37' E 014°29'8 7.0
2016-Jul-24 16:28N 40°34' E 014°20'2 0.7
2016-Jul-24 13:31N 40°35' E 014°22'5 3.8
2016-Jul-24 12:04N 40°37' E 014°29'2 1.3
2016-Jul-24 10:32N 40°36' E 014°26'10 9.8
2016-Jul-24 09:33N 40°33' E 014°14'12 6.0
2016-Jul-24 07:33N 40°37' E 014°29'7 0.5
2016-Jul-23 17:16N 40°34' E 014°21'2 2.9
2016-Jul-23 16:33N 40°34' E 014°18'10 8.3
2016-Jul-23 15:23N 40°37' E 014°30'6 3.4
2016-Jul-23 13:32N 40°35' E 014°22'4 4.5
2016-Jul-23 12:33N 40°34' E 014°17'1010.1
2016-Jul-23 11:33N 40°38' E 014°29'3 3.2
2016-Jul-23 10:30N 40°36' E 014°25'9 9.2
2016-Jul-23 09:33N 40°33' E 014°14'12 0.7
2016-Jul-22 17:33N 40°37' E 014°29'9 9.3
2016-Jul-22 16:33N 40°34' E 014°17'10 9.5
2016-Jul-22 15:32N 40°37' E 014°29'0 0.0
2016-Jul-22 14:33N 40°37' E 014°29'6 5.9
2016-Jul-22 13:33N 40°35' E 014°22'4 4.3
2016-Jul-22 12:33N 40°34' E 014°17'10 7.8
2016-Jul-22 11:16N 40°38' E 014°29'9 8.2
2016-Jul-22 10:13N 40°34' E 014°19'3 5.2
2016-Jul-22 09:33N 40°33' E 014°14'1110.7
2016-Jul-22 08:32N 40°37' E 014°28'6 0.4
2016-Jul-21 17:20N 40°34' E 014°20'2 2.0
2016-Jul-21 16:33N 40°34' E 014°18'10 9.2
2016-Jul-21 15:31N 40°37' E 014°30'7 3.7
2016-Jul-21 13:29N 40°34' E 014°21'3 3.3
2016-Jul-21 12:33N 40°34' E 014°17'1 0.3
2016-Jul-21 10:13N 40°34' E 014°18'3 4.1
2016-Jul-21 09:33N 40°33' E 014°14'3 0.2
2016-Jul-20 17:13N 40°34' E 014°19'0 0.1
2016-Jul-20 13:25N 40°34' E 014°20'2 2.4
2016-Jul-20 12:33N 40°34' E 014°17'7 3.3
2016-Jul-20 10:33N 40°36' E 014°25'8 7.6
2016-Jul-20 09:27N 40°33' E 014°14'1112.7
2016-Jul-20 08:33N 40°37' E 014°28'7 0.5
2016-Jul-19 17:18N 40°34' E 014°20'1 0.3
2016-Jul-19 13:21N 40°34' E 014°18'0 0.3
2016-Jul-19 12:33N 40°34' E 014°18'1 0.3
2016-Jul-19 10:13N 40°34' E 014°17'2 2.4
2016-Jul-19 09:21N 40°33' E 014°14'2 0.1
2016-Jul-18 17:11N 40°34' E 014°17'2 0.5
2016-Jul-18 13:25N 40°34' E 014°19'2 0.6
2016-Jul-18 10:10N 40°34' E 014°17'2 3.4
2016-Jul-18 09:33N 40°33' E 014°14'3 0.2
2016-Jul-17 17:14N 40°34' E 014°18'0 0.0
2016-Jul-17 13:20N 40°34' E 014°18'1 0.7
2016-Jul-17 12:33N 40°34' E 014°17'0 0.2
2016-Jul-17 10:12N 40°34' E 014°18'3 2.2
2016-Jul-17 09:05N 40°33' E 014°14'3 0.2
2016-Jul-16 17:12N 40°34' E 014°18'2 0.4
2016-Jul-16 13:18N 40°34' E 014°16'0 0.1
2016-Jul-16 10:09N 40°34' E 014°16'1 1.7
2016-Jul-16 09:24N 40°33' E 014°14'1 0.1
2016-Jul-15 17:06N 40°34' E 014°16'2 0.5
2016-Jul-15 13:27N 40°34' E 014°18'2 2.5
2016-Jul-15 12:33N 40°34' E 014°15'11 7.8
2016-Jul-15 11:07N 40°37' E 014°29'1012.1
2016-Jul-15 10:15N 40°34' E 014°16'2 2.3
2016-Jul-15 09:33N 40°33' E 014°14'  

Dump ship's entire track history